Data for 09/11/2014

Time Sea-Level Adjusted Pressure Absolute Pressure Temperature Relative Humidity Dew Point   
(mb) (inHg) (mb) (inHg) (C) (F) (%) (C) (F)
00:05 1026 30.3 855 25.25 1.3 34.3 82 -1.4 29.5
00:10 1026 30.3 855 25.25 1.3 34.4 81 -1.6 29.1
00:15 1026 30.3 855 25.25 1.3 34.4 82 -1.4 29.5
00:20 1026 30.3 856 25.28 1.3 34.4 81 -1.5 29.2
00:25 1026 30.3 856 25.28 1.4 34.5 80 -1.6 29.1
00:30 1026 30.3 856 25.28 1.3 34.4 82 -1.4 29.6
00:35 1026 30.3 856 25.28 1.3 34.3 81 -1.6 29.1
00:40 1026 30.3 856 25.28 1.2 34.2 82 -1.6 29.2
00:45 1026 30.3 856 25.28 1.2 34.1 81 -1.7 29
00:50 1026 30.3 856 25.28 1.2 34.1 81 -1.7 29
00:55 1026 30.3 856 25.28 1.2 34.1 80 -1.8 28.7
01:00 1026 30.3 856 25.28 1.2 34.2 80 -1.8 28.7
01:05 1026 30.3 856 25.28 1.2 34.2 80 -1.9 28.5
01:10 1026 30.3 856 25.28 1.2 34.2 79 -2 28.4
01:15 1026 30.3 856 25.28 1.2 34.2 79 -2 28.4
01:20 1026 30.3 856 25.28 1.2 34.1 81 -1.8 28.8
01:25 1026 30.3 856 25.28 1.1 33.9 82 -1.7 29
01:30 1026 30.3 856 25.28 1 33.8 81 -1.8 28.7
01:35 1027 30.33 856 25.28 1 33.8 82 -1.8 28.8
01:40 1026 30.3 856 25.28 0.9 33.6 83 -1.7 28.9
01:45 1027 30.33 856 25.28 0.9 33.6 82 -1.9 28.5
01:50 1027 30.33 856 25.28 0.9 33.5 81 -2.1 28.3
01:55 1027 30.33 856 25.28 0.8 33.5 82 -2 28.4
02:00 1027 30.33 856 25.28 0.8 33.4 82 -2 28.4
02:05 1027 30.33 856 25.28 0.8 33.4 82 -2 28.4
02:10 1027 30.33 856 25.28 0.7 33.3 83 -1.8 28.8
02:15 1027 30.33 856 25.28 0.7 33.3 83 -1.8 28.7
02:20 1027 30.33 856 25.28 0.7 33.3 83 -1.9 28.6
02:25 1027 30.33 856 25.28 0.7 33.2 81 -2.1 28.2
02:30 1027 30.33 856 25.28 0.6 33.1 83 -1.9 28.6
02:35 1027 30.33 856 25.28 0.5 33 84 -1.9 28.6
02:40 1027 30.33 856 25.28 0.5 32.9 84 -1.9 28.6
02:45 1027 30.33 856 25.28 0.5 32.8 85 -1.8 28.7
02:50 1027 30.33 856 25.28 0.4 32.8 86 -1.7 29
02:55 1027 30.33 856 25.28 0.4 32.8 86 -1.7 28.9
03:00 1027 30.33 856 25.28 0.4 32.8 85 -1.8 28.7
03:05 1027 30.33 856 25.28 0.4 32.8 85 -1.8 28.7
03:10 1027 30.33 856 25.28 0.4 32.8 85 -1.8 28.7
03:15 1027 30.33 856 25.28 0.5 32.8 85 -1.8 28.7
03:20 1027 30.33 856 25.28 0.5 32.9 84 -1.9 28.7
03:25 1027 30.33 856 25.28 0.5 32.8 84 -1.9 28.5
03:30 1027 30.33 856 25.28 0.5 32.8 84 -1.9 28.6
03:35 1027 30.33 856 25.28 0.5 32.8 84 -2 28.4
03:40 1027 30.33 856 25.28 0.5 32.9 83 -2.1 28.2
03:45 1027 30.33 856 25.28 0.5 32.8 83 -2.1 28.3
03:50 1027 30.33 856 25.28 0.5 32.9 83 -2 28.4
03:55 1027 30.33 856 25.28 0.5 32.9 83 -2.1 28.3
04:00 1027 30.33 856 25.28 0.5 32.9 83 -2.1 28.3
04:05 1027 30.33 856 25.28 0.5 32.9 83 -2.1 28.3
04:10 1027 30.33 856 25.28 0.5 32.8 83 -2.1 28.3
04:15 1027 30.33 856 25.28 0.4 32.8 83 -2.1 28.3
04:20 1027 30.33 856 25.28 0.4 32.8 83 -2.1 28.2
04:25 1027 30.33 856 25.28 0.4 32.8 83 -2.1 28.2
04:30 1027 30.33 856 25.28 0.4 32.7 83 -2.1 28.1
04:35 1027 30.33 856 25.28 0.3 32.5 85 -2 28.4
04:40 1027 30.33 856 25.28 0.2 32.4 84 -2.1 28.1
04:45 1027 30.33 856 25.28 0.1 32.2 86 -2 28.4
04:50 1027 30.33 856 25.28 0.1 32.2 86 -2 28.3
04:55 1027 30.33 856 25.28 0.1 32.2 85 -2.1 28.3
05:00 1027 30.33 856 25.28 0.1 32.2 86 -2 28.4
05:05 1027 30.33 856 25.28 0.1 32.3 84 -2.2 28
05:10 1027 30.33 856 25.28 0.2 32.3 84 -2.2 28.1
05:15 1027 30.33 856 25.28 0.1 32.3 84 -2.2 28
05:20 1027 30.33 856 25.28 0.1 32.2 84 -2.2 28
05:25 1027 30.33 857 25.31 0.1 32.2 84 -2.3 27.9
05:30 1027 30.33 857 25.31 0.1 32.2 83 -2.3 27.8
05:35 1027 30.33 857 25.31 0.1 32.3 84 -2.2 28
05:40 1027 30.33 857 25.31 0.2 32.3 83 -2.3 27.8
05:45 1028 30.36 857 25.31 0.1 32.2 83 -2.4 27.7
05:50 1028 30.36 857 25.31 0.1 32.2 83 -2.4 27.7
05:55 1028 30.36 857 25.31 0.2 32.3 83 -2.4 27.6
06:00 1028 30.36 857 25.31 0.2 32.4 83 -2.3 27.9
06:05 1028 30.36 857 25.31 0.2 32.4 84 -2.2 28.1
06:10 1028 30.36 857 25.31 0.3 32.5 90 -1.3 29.7
06:15 1028 30.36 857 25.31 0.2 32.3 89 -1.4 29.5
06:20 1028 30.36 857 25.31 0.1 32.2 85 -2.1 28.2
06:25 1028 30.36 857 25.31 0.2 32.3 85 -2.1 28.2
06:30 1028 30.36 857 25.31 0.1 32.3 84 -2.2 28.1
06:35 1028 30.36 857 25.31 0.1 32.2 84 -2.3 27.9
06:40 1028 30.36 857 25.31 0.1 32.3 83 -2.5 27.6
06:45 1028 30.36 857 25.31 0.1 32.3 82 -2.6 27.4
06:50 1028 30.36 857 25.31 0.1 32.2 84 -2.3 27.8
06:55 1028 30.36 857 25.31 0.1 32.2 83 -2.4 27.7
07:00 1028 30.36 858 25.34 0.2 32.3 82 -2.5 27.5
07:05 1028 30.36 858 25.34 0.3 32.5 82 -2.5 27.6
07:10 1029 30.39 858 25.34 0.3 32.6 82 -2.4 27.7
07:15 1029 30.39 858 25.34 0.4 32.7 81 -2.5 27.4
07:20 1029 30.39 858 25.34 0.6 33.1 79 -2.6 27.3
07:25 1029 30.39 858 25.34 0.7 33.3 80 -2.3 27.8
07:30 1029 30.39 858 25.34 0.8 33.4 85 -1.6 29.2
07:35 1029 30.39 858 25.34 0.9 33.6 85 -1.4 29.6
07:40 1029 30.39 858 25.34 0.9 33.7 87 -1 30.2
07:45 1029 30.39 858 25.34 1 33.8 85 -1.3 29.7
07:50 1029 30.39 858 25.34 1 33.7 80 -2.2 28.1
07:55 1029 30.39 858 25.34 0.8 33.5 80 -2.3 27.9
08:00 1029 30.39 858 25.34 0.8 33.5 78 -2.7 27.2
08:05 1029 30.39 858 25.34 0.8 33.4 78 -2.6 27.2
08:10 1029 30.39 858 25.34 0.8 33.5 78 -2.6 27.2
08:15 1029 30.39 858 25.34 0.9 33.6 78 -2.6 27.3
08:20 1029 30.39 858 25.34 0.8 33.5 79 -2.5 27.5
08:25 1029 30.39 858 25.34 0.8 33.4 79 -2.5 27.4
08:30 1029 30.39 858 25.34 0.9 33.6 77 -2.7 27.2
08:35 1029 30.39 859 25.37 0.8 33.5 77 -2.7 27.2
08:40 1029 30.39 859 25.37 0.9 33.6 77 -2.6 27.2
08:45 1029 30.39 859 25.37 1.1 34 76 -2.6 27.3
08:50 1030 30.42 859 25.37 1.1 34 74 -3.1 26.5
08:55 1030 30.42 859 25.37 1.2 34.1 74 -3 26.6
09:00 1030 30.42 859 25.37 1.3 34.3 74 -2.9 26.9
09:05 1030 30.42 859 25.37 1.6 34.8 72 -2.9 26.8
09:10 1030 30.42 859 25.37 1.6 34.9 73 -2.7 27.1
09:15 1030 30.42 859 25.37 1.8 35.2 73 -2.6 27.3
09:20 1030 30.42 859 25.37 2 35.6 69 -3.1 26.3
09:25 1030 30.42 859 25.37 2.2 36 69 -2.9 26.8
09:30 1030 30.42 859 25.37 2.4 36.4 69 -2.6 27.3
09:35 1030 30.42 859 25.37 2.4 36.3 70 -2.6 27.4
09:40 1030 30.42 859 25.37 2.5 36.5 69 -2.6 27.2
09:45 1030 30.42 859 25.37 2.4 36.3 70 -2.6 27.3
09:50 1030 30.42 859 25.37 2.8 37 65 -3.1 26.4
09:55 1030 30.42 859 25.37 2.7 36.9 63 -3.6 25.6
10:00 1030 30.42 859 25.37 2.6 36.7 64 -3.6 25.5
10:05 1030 30.42 859 25.37 2.4 36.3 62 -4.1 24.6
10:10 1030 30.42 859 25.37 2.2 36 64 -3.9 25
10:15 1030 30.42 859 25.37 2.2 36 62 -4.4 24.1
10:20 1030 30.42 859 25.37 2.8 37.1 64 -3.3 26.1
10:25 1030 30.42 859 25.37 2.9 37.2 61 -3.8 25.1
10:30 1030 30.42 859 25.37 3 37.5 62 -3.5 25.7
10:35 1030 30.42 859 25.37 3.3 38 59 -3.8 25.1
10:40 1030 30.42 859 25.37 3.4 38.1 59 -3.8 25.1
10:45 1030 30.42 859 25.37 3.5 38.3 62 -3 26.6
10:50 1030 30.42 859 25.37 3.4 38.1 61 -3.5 25.8
10:55 1030 30.42 859 25.37 3.3 38 63 -3 26.7
11:00 1030 30.42 859 25.37 3.1 37.6 65 -2.8 26.9
11:05 1030 30.42 859 25.37 3.2 37.7 62 -3.3 26.1
11:10 1030 30.42 859 25.37 3.4 38.1 60 -3.5 25.6
11:15 1030 30.42 859 25.37 3.5 38.2 60 -3.6 25.5
11:20 1030 30.42 859 25.37 3.4 38 60 -3.6 25.5
11:25 1030 30.42 859 25.37 3.5 38.3 60 -3.5 25.7
11:30 1030 30.42 859 25.37 3.4 38.1 60 -3.7 25.3
11:35 1030 30.42 859 25.37 3.7 38.7 58 -3.8 25.1
11:40 1030 30.42 859 25.37 3.4 38.2 60 -3.7 25.4
11:45 1030 30.42 859 25.37 3.5 38.3 59 -3.7 25.3
11:50 1030 30.42 859 25.37 3.6 38.5 59 -3.6 25.6
11:55 1030 30.42 859 25.37 3.6 38.6 60 -3.4 25.9
12:00 1030 30.42 859 25.37 3.6 38.4 57 -4.1 24.7
12:05 1030 30.42 860 25.4 3.5 38.2 60 -3.6 25.5
12:10 1030 30.42 859 25.37 3.5 38.3 61 -3.4 25.9
12:15 1030 30.42 859 25.37 3.5 38.3 59 -3.7 25.4
12:20 1030 30.42 860 25.4 3.6 38.4 58 -4 24.9
12:25 1030 30.42 860 25.4 3.4 38.1 60 -3.6 25.6
12:30 1030 30.42 860 25.4 3.4 38.1 61 -3.5 25.7
12:35 1030 30.42 859 25.37 3.4 38.1 57 -4.3 24.2
12:40 1030 30.42 859 25.37 3.4 38 58 -4.2 24.5
12:45 1030 30.42 859 25.37 3.3 38 55 -4.8 23.4
12:50 1030 30.42 860 25.4 3.7 38.6 54 -4.7 23.5
12:55 1030 30.42 860 25.4 3.7 38.7 53 -5.1 22.8
13:00 1030 30.42 860 25.4 3.6 38.5 54 -4.8 23.4
13:05 1030 30.42 860 25.4 3.7 38.6 55 -4.6 23.8
13:10 1030 30.42 860 25.4 3.7 38.7 55 -4.5 23.9
13:15 1030 30.42 860 25.4 3.5 38.2 55 -4.6 23.7
13:20 1030 30.42 860 25.4 3.3 38 57 -4.4 24
13:25 1030 30.42 860 25.4 3.3 38 56 -4.7 23.5
13:30 1031 30.45 860 25.4 3.6 38.5 55 -4.5 23.9
13:35 1031 30.45 860 25.4 3.9 38.9 54 -4.7 23.6
13:40 1031 30.45 860 25.4 3.9 39 53 -4.9 23.2
13:45 1031 30.45 860 25.4 4 39.3 53 -4.7 23.5
13:50 1030 30.42 860 25.4 4 39.3 53 -4.6 23.8
13:55 1030 30.42 860 25.4 4.3 39.7 54 -4.2 24.5
14:00 1030 30.42 860 25.4 4.3 39.8 51 -5 23.1
14:05 1030 30.42 860 25.4 4.9 40.8 50 -4.7 23.6
14:10 1030 30.42 860 25.4 5.5 41.9 50 -4 24.8
14:15 1030 30.42 860 25.4 5.2 41.3 49 -4.7 23.5
14:20 1030 30.42 860 25.4 5.2 41.4 49 -4.5 23.9
14:25 1030 30.42 860 25.4 5.1 41.3 52 -4 24.8
14:30 1030 30.42 860 25.4 4.9 40.9 52 -4.1 24.7
14:35 1030 30.42 859 25.37 4.7 40.5 53 -4.1 24.5
14:40 1030 30.42 860 25.4 4.8 40.7 54 -3.7 25.3
14:45 1030 30.42 860 25.4 4.7 40.5 52 -4.3 24.2
14:50 1030 30.42 859 25.37 4.9 40.8 49 -5 23.1
14:55 1030 30.42 859 25.37 4.9 40.9 49 -4.9 23.1
15:00 1030 30.42 859 25.37 5.1 41.2 50 -4.4 24.1
15:05 1030 30.42 859 25.37 4.9 40.8 51 -4.5 23.8
15:10 1030 30.42 859 25.37 4.8 40.7 49 -4.9 23.2
15:15 1030 30.42 859 25.37 4.9 40.9 50 -4.6 23.8
15:20 1030 30.42 859 25.37 5.1 41.2 48 -5.1 22.9
15:25 1030 30.42 859 25.37 5 40.9 48 -5.1 22.8
15:30 1030 30.42 859 25.37 5 40.9 53 -3.8 25.2
15:35 1030 30.42 859 25.37 5.2 41.4 50 -4.2 24.4
15:40 1030 30.42 859 25.37 5.2 41.4 51 -4 24.7
15:45 1030 30.42 859 25.37 4.8 40.7 53 -3.9 25
15:50 1030 30.42 859 25.37 4.8 40.7 53 -3.9 25
15:55 1030 30.42 859 25.37 5 41 54 -3.7 25.4
16:00 1030 30.42 859 25.37 5.2 41.4 53 -3.6 25.5
16:05 1030 30.42 859 25.37 5.4 41.6 51 -4.1 24.7
16:10 1030 30.42 859 25.37 5.3 41.5 50 -4.3 24.2
16:15 1030 30.42 859 25.37 5.2 41.4 51 -4.1 24.7
16:20 1030 30.42 859 25.37 5.2 41.4 51 -4.1 24.7
16:25 1030 30.42 860 25.4 5.5 41.8 49 -4.4 24.1
16:30 1030 30.42 860 25.4 5.2 41.3 49 -4.7 23.5
16:35 1030 30.42 860 25.4 5.1 41.1 47 -5.3 22.4
16:40 1030 30.42 860 25.4 5.2 41.4 51 -4.2 24.5
16:45 1030 30.42 860 25.4 5.7 42.2 48 -4.4 24.1
16:50 1030 30.42 860 25.4 5.6 42.1 52 -3.4 25.8
16:55 1030 30.42 860 25.4 5 41 52 -4 24.9
17:00 1030 30.42 860 25.4 5 40.9 54 -3.5 25.8
17:05 1030 30.42 860 25.4 5.2 41.3 52 -3.8 25.1
17:10 1030 30.42 860 25.4 5.5 41.9 51 -3.9 25
17:15 1030 30.42 860 25.4 5.5 41.9 52 -3.7 25.4
17:20 1030 30.42 860 25.4 5.2 41.3 53 -3.6 25.6
17:25 1030 30.42 859 25.37 5 41.1 53 -3.8 25.2
17:30 1030 30.42 860 25.4 4.9 40.7 53 -3.9 25
17:35 1030 30.42 859 25.37 4.8 40.7 52 -4.3 24.3
17:40 1030 30.42 859 25.37 4.6 40.3 52 -4.4 24
17:45 1030 30.42 859 25.37 4.6 40.2 54 -4 24.8
17:50 1030 30.42 859 25.37 4.6 40.2 57 -3.3 26.1
17:55 1030 30.42 859 25.37 4.5 40.1 58 -3 26.7
18:00 1030 30.42 859 25.37 4.4 39.9 58 -3.1 26.3
18:05 1030 30.42 859 25.37 4.3 39.7 58 -3.2 26.3
18:10 1030 30.42 859 25.37 4.1 39.4 60 -3 26.6
18:15 1030 30.42 859 25.37 4 39.3 61 -2.9 26.8
18:20 1030 30.42 859 25.37 3.8 38.9 61 -2.9 26.7
18:25 1030 30.42 859 25.37 3.6 38.6 62 -2.9 26.8
18:30 1030 30.42 859 25.37 3.5 38.3 63 -2.9 26.8
18:35 1030 30.42 859 25.37 3.4 38.1 64 -2.8 27
18:40 1030 30.42 859 25.37 3.3 37.9 65 -2.8 27
18:45 1030 30.42 859 25.37 3.1 37.7 65 -2.7 27.1
18:50 1030 30.42 859 25.37 3 37.4 66 -2.7 27.2
18:55 1030 30.42 859 25.37 3 37.3 65 -2.9 26.7
19:00 1030 30.42 859 25.37 2.9 37.2 66 -2.9 26.8
19:05 1030 30.42 859 25.37 2.8 37.1 66 -2.9 26.7
19:10 1030 30.42 859 25.37 2.7 36.9 67 -2.8 26.9
19:15 1030 30.42 859 25.37 2.6 36.6 67 -2.9 26.8
19:20 1030 30.42 859 25.37 2.5 36.4 68 -2.9 26.8
19:25 1030 30.42 859 25.37 2.3 36.2 69 -2.8 27
19:30 1030 30.42 859 25.37 2.2 36 69 -2.8 26.9
19:35 1030 30.42 859 25.37 2.1 35.8 70 -2.8 26.9
19:40 1030 30.42 859 25.37 2.1 35.7 70 -2.8 26.9
19:45 1030 30.42 859 25.37 2 35.6 71 -2.7 27.1
19:50 1030 30.42 859 25.37 1.9 35.4 71 -2.8 27
19:55 1030 30.42 859 25.37 1.9 35.4 71 -2.9 26.8
20:00 1030 30.42 859 25.37 1.8 35.3 72 -2.7 27.1
20:05 1030 30.42 859 25.37 1.7 35 73 -2.7 27.2
20:10 1030 30.42 859 25.37 1.6 34.8 74 -2.6 27.2
20:15 1030 30.42 859 25.37 1.4 34.6 74 -2.7 27.1
20:20 1030 30.42 859 25.37 1.3 34.4 74 -2.8 27
20:25 1030 30.42 859 25.37 1.2 34.2 75 -2.8 26.9
20:30 1030 30.42 859 25.37 1.2 34.2 74 -2.9 26.8
20:35 1030 30.42 859 25.37 1.2 34.1 74 -2.9 26.8
20:40 1030 30.42 859 25.37 1.1 33.9 75 -2.9 26.7
20:45 1030 30.42 859 25.37 1.1 34 74 -3.1 26.4
20:50 1030 30.42 859 25.37 1.1 34 73 -3.2 26.2
20:55 1030 30.42 859 25.37 1.2 34.1 72 -3.3 26
21:00 1030 30.42 859 25.37 1.2 34.2 72 -3.3 26.1
21:05 1030 30.42 859 25.37 1.2 34.2 72 -3.2 26.3
21:10 1030 30.42 859 25.37 1.2 34.2 73 -3.2 26.3
21:15 1030 30.42 859 25.37 1.1 34 73 -3.1 26.3
21:20 1030 30.42 859 25.37 1 33.8 74 -3.2 26.3
21:25 1030 30.42 859 25.37 1 33.7 73 -3.3 26.1
21:30 1030 30.42 859 25.37 1 33.7 74 -3.2 26.2
21:35 1030 30.42 859 25.37 0.9 33.7 73 -3.3 26
21:40 1030 30.42 859 25.37 0.9 33.6 74 -3.3 26.1
21:45 1030 30.42 859 25.37 0.9 33.6 74 -3.3 26.1
21:50 1030 30.42 859 25.37 0.9 33.7 73 -3.3 26
21:55 1030 30.42 859 25.37 0.9 33.6 74 -3.2 26.2
22:00 1030 30.42 859 25.37 0.7 33.3 75 -3.2 26.2
22:05 1030 30.42 859 25.37 0.8 33.4 75 -3.2 26.2
22:10 1030 30.42 859 25.37 0.6 33.1 75 -3.2 26.2
22:15 1030 30.42 859 25.37 0.6 33 75 -3.3 26.1
22:20 1030 30.42 859 25.37 0.5 32.9 76 -3.3 26.1
22:25 1030 30.42 859 25.37 0.4 32.7 76 -3.4 25.9
22:30 1030 30.42 859 25.37 0.3 32.6 76 -3.4 25.9
22:35 1030 30.42 859 25.37 0.2 32.3 78 -3.2 26.2
22:40 1030 30.42 859 25.37 -0.1 31.9 78 -3.4 25.9
22:45 1029 30.39 859 25.37 -0.1 31.8 78 -3.4 25.8
22:50 1029 30.39 859 25.37 -0.1 31.8 78 -3.5 25.7
22:55 1029 30.39 859 25.37 -0.1 31.7 78 -3.6 25.6
23:00 1029 30.39 859 25.37 -0.2 31.6 78 -3.6 25.6
23:05 1029 30.39 859 25.37 -0.2 31.6 78 -3.6 25.6
23:10 1029 30.39 859 25.37 -0.3 31.5 78 -3.6 25.5
23:15 1029 30.39 859 25.37 -0.3 31.4 79 -3.6 25.5
23:20 1029 30.39 859 25.37 -0.4 31.3 79 -3.6 25.6
23:25 1029 30.39 859 25.37 -0.4 31.3 79 -3.6 25.5
23:30 1029 30.39 859 25.37 -0.4 31.3 80 -3.5 25.8
23:35 1029 30.39 859 25.37 -0.5 31 80 -3.5 25.7
23:40 1029 30.39 858 25.34 -0.7 30.8 80 -3.6 25.4
23:45 1029 30.39 858 25.34 -0.7 30.8 80 -3.7 25.4
23:50 1029 30.39 858 25.34 -0.7 30.7 80 -3.7 25.4
23:55 1029 30.39 858 25.34 -0.8 30.6 80 -3.8 25.2
24:00 1029 30.39 858 25.34 -0.7 30.7 79 -3.9 25